sensor_id;sensor_type;location;lat;lon;timestamp;pressure;altitude;pressure_sealevel;temperature;humidity
61961;BME280;47923;42.506;24.192;2023-03-16T00:02:02;94433.34;;;5.67;73.96
61961;BME280;47923;42.506;24.192;2023-03-16T00:04:29;94426.59;;;5.73;74.19
61961;BME280;47923;42.506;24.192;2023-03-16T00:06:55;94367.69;;;5.38;74.43
61961;BME280;47923;42.506;24.192;2023-03-16T00:09:21;94430.88;;;5.77;75.56
61961;BME280;47923;42.506;24.192;2023-03-16T00:11:58;94368.56;;;5.26;75.44
61961;BME280;47923;42.506;24.192;2023-03-16T00:14:24;94434.66;;;5.57;75.17
61961;BME280;47923;42.506;24.192;2023-03-16T00:16:50;94456.34;;;5.68;75.50
61961;BME280;47923;42.506;24.192;2023-03-16T00:19:16;94179.16;;;3.79;75.35
61961;BME280;47923;42.506;24.192;2023-03-16T00:21:41;94456.44;;;5.55;75.32
61961;BME280;47923;42.506;24.192;2023-03-16T00:24:07;94222.69;;;3.95;74.94
61961;BME280;47923;42.506;24.192;2023-03-16T00:26:33;94460.03;;;5.44;74.19
61961;BME280;47923;42.506;24.192;2023-03-16T00:28:58;94460.38;;;5.42;74.07
61961;BME280;47923;42.506;24.192;2023-03-16T00:31:24;94449.16;;;5.21;73.69
61961;BME280;47923;42.506;24.192;2023-03-16T00:33:50;94465.22;;;5.37;74.01
61961;BME280;47923;42.506;24.192;2023-03-16T00:36:16;94363.00;;;4.64;72.86
61961;BME280;47923;42.506;24.192;2023-03-16T00:38:42;94464.63;;;5.27;73.59
61961;BME280;47923;42.506;24.192;2023-03-16T00:41:13;94459.81;;;5.17;74.34
61961;BME280;47923;42.506;24.192;2023-03-16T00:43:40;94460.06;;;5.12;75.30
61961;BME280;47923;42.506;24.192;2023-03-16T00:46:08;94460.06;;;5.12;74.96
61961;BME280;47923;42.506;24.192;2023-03-16T00:48:35;94317.44;;;4.13;74.67
61961;BME280;47923;42.506;24.192;2023-03-16T00:51:03;94476.13;;;5.12;75.15
61961;BME280;47923;42.506;24.192;2023-03-16T00:53:32;94306.16;;;4.04;74.43
61961;BME280;47923;42.506;24.192;2023-03-16T00:55:58;94467.94;;;5.05;73.93
61961;BME280;47923;42.506;24.192;2023-03-16T00:58:24;94466.72;;;5.03;74.49
61961;BME280;47923;42.506;24.192;2023-03-16T01:00:50;94462.34;;;4.94;74.53
61961;BME280;47923;42.506;24.192;2023-03-16T01:03:18;94305.69;;;4.02;74.31
61961;BME280;47923;42.506;24.192;2023-03-16T01:05:43;94427.88;;;4.77;73.89
61961;BME280;47923;42.506;24.192;2023-03-16T01:08:10;94226.97;;;3.52;74.00
61961;BME280;47923;42.506;24.192;2023-03-16T01:10:36;94436.69;;;4.78;73.64
61961;BME280;47923;42.506;24.192;2023-03-16T01:13:02;94399.66;;;4.48;74.26
61961;BME280;47923;42.506;24.192;2023-03-16T01:15:29;94446.00;;;4.84;74.38
61961;BME280;47923;42.506;24.192;2023-03-16T01:17:55;94435.47;;;4.59;73.78
61961;BME280;47923;42.506;24.192;2023-03-16T01:20:20;94299.63;;;3.74;73.80
61961;BME280;47923;42.506;24.192;2023-03-16T01:22:46;94454.44;;;4.70;73.54
61961;BME280;47923;42.506;24.192;2023-03-16T01:25:13;94448.59;;;4.64;73.82
61961;BME280;47923;42.506;24.192;2023-03-16T01:27:39;94340.66;;;3.81;74.66
61961;BME280;47923;42.506;24.192;2023-03-16T01:30:05;94468.28;;;4.56;74.17
61961;BME280;47923;42.506;24.192;2023-03-16T01:32:31;94480.75;;;4.52;73.70
61961;BME280;47923;42.506;24.192;2023-03-16T01:34:58;94461.19;;;4.48;74.10
61961;BME280;47923;42.506;24.192;2023-03-16T01:37:24;94468.69;;;4.42;74.24
61961;BME280;47923;42.506;24.192;2023-03-16T01:39:49;94088.13;;;1.93;74.51
61961;BME280;47923;42.506;24.192;2023-03-16T01:42:15;94469.25;;;4.36;74.71
61961;BME280;47923;42.506;24.192;2023-03-16T01:44:54;94477.44;;;4.27;73.96
61961;BME280;47923;42.506;24.192;2023-03-16T01:47:21;94266.84;;;2.89;74.42
61961;BME280;47923;42.506;24.192;2023-03-16T01:49:48;94384.28;;;3.57;74.13
61961;BME280;47923;42.506;24.192;2023-03-16T01:52:21;94479.03;;;4.16;74.55
61961;BME280;47923;42.506;24.192;2023-03-16T01:54:49;94481.28;;;4.14;74.13
61961;BME280;47923;42.506;24.192;2023-03-16T01:57:19;94326.16;;;3.11;74.49
61961;BME280;47923;42.506;24.192;2023-03-16T01:59:50;94473.06;;;4.07;74.09
61961;BME280;47923;42.506;24.192;2023-03-16T02:02:19;94479.19;;;4.07;74.30
61961;BME280;47923;42.506;24.192;2023-03-16T02:05:07;94324.81;;;3.04;74.31
61961;BME280;47923;42.506;24.192;2023-03-16T02:07:48;94450.88;;;3.78;74.62
61961;BME280;47923;42.506;24.192;2023-03-16T02:10:16;94400.22;;;3.54;73.88
61961;BME280;47923;42.506;24.192;2023-03-16T02:12:43;94469.88;;;3.89;73.61
61961;BME280;47923;42.506;24.192;2023-03-16T02:15:10;94494.09;;;4.08;73.35
61961;BME280;47923;42.506;24.192;2023-03-16T02:17:36;94183.78;;;2.10;73.83
61961;BME280;47923;42.506;24.192;2023-03-16T02:20:24;94499.25;;;4.01;73.14
61961;BME280;47923;42.506;24.192;2023-03-16T02:22:53;94469.63;;;3.66;73.88
61961;BME280;47923;42.506;24.192;2023-03-16T02:30:50;94431.50;;;3.41;74.04
61961;BME280;47923;42.506;24.192;2023-03-16T02:33:16;94514.66;;;3.80;74.80
61961;BME280;47923;42.506;24.192;2023-03-16T02:35:43;94386.88;;;3.01;74.71
61961;BME280;47923;42.506;24.192;2023-03-16T02:38:08;94440.44;;;3.33;74.71
61961;BME280;47923;42.506;24.192;2023-03-16T02:40:35;94513.56;;;3.81;75.53
61961;BME280;47923;42.506;24.192;2023-03-16T02:43:11;94526.38;;;3.75;75.41
61961;BME280;47923;42.506;24.192;2023-03-16T02:45:54;94466.00;;;3.34;75.22
61961;BME280;47923;42.506;24.192;2023-03-16T02:48:42;94539.94;;;3.82;73.88
61961;BME280;47923;42.506;24.192;2023-03-16T02:51:09;94504.59;;;3.61;74.11
61961;BME280;47923;42.506;24.192;2023-03-16T02:53:35;94400.66;;;2.79;74.50
61961;BME280;47923;42.506;24.192;2023-03-16T02:56:01;94502.81;;;3.28;75.02
61961;BME280;47923;42.506;24.192;2023-03-16T02:58:28;94535.75;;;3.69;74.38
61961;BME280;47923;42.506;24.192;2023-03-16T03:00:54;94534.50;;;3.67;74.56
61961;BME280;47923;42.506;24.192;2023-03-16T03:03:21;94458.34;;;3.08;74.83
61961;BME280;47923;42.506;24.192;2023-03-16T03:05:47;94541.88;;;3.57;74.47
61961;BME280;47923;42.506;24.192;2023-03-16T03:08:13;93945.81;;;-0.50;74.56
61961;BME280;47923;42.506;24.192;2023-03-16T03:10:39;94489.16;;;3.18;75.11
61961;BME280;47923;42.506;24.192;2023-03-16T03:13:05;94526.06;;;3.28;74.34
61961;BME280;47923;42.506;24.192;2023-03-16T03:15:32;94558.91;;;3.53;74.71
61961;BME280;47923;42.506;24.192;2023-03-16T03:17:58;94363.44;;;2.21;74.66
61961;BME280;47923;42.506;24.192;2023-03-16T03:20:23;94313.97;;;1.87;74.84
61961;BME280;47923;42.506;24.192;2023-03-16T03:22:50;94404.75;;;2.40;75.13
61961;BME280;47923;42.506;24.192;2023-03-16T03:25:18;94211.28;;;1.08;74.67
61961;BME280;47923;42.506;24.192;2023-03-16T03:27:45;94570.59;;;3.48;75.19
61961;BME280;47923;42.506;24.192;2023-03-16T03:30:13;94574.38;;;3.47;74.53
61961;BME280;47923;42.506;24.192;2023-03-16T03:32:40;94582.59;;;3.42;74.93
61961;BME280;47923;42.506;24.192;2023-03-16T03:35:06;94449.31;;;2.52;74.22
61961;BME280;47923;42.506;24.192;2023-03-16T03:37:32;94596.25;;;3.28;74.16
61961;BME280;47923;42.506;24.192;2023-03-16T03:39:57;94525.56;;;2.77;74.43
61961;BME280;47923;42.506;24.192;2023-03-16T03:42:23;94594.59;;;3.24;74.60
61961;BME280;47923;42.506;24.192;2023-03-16T03:44:49;94594.03;;;3.30;74.47
61961;BME280;47923;42.506;24.192;2023-03-16T03:47:18;94600.94;;;3.31;74.20
61961;BME280;47923;42.506;24.192;2023-03-16T03:49:44;94585.13;;;3.02;74.42
61961;BME280;47923;42.506;24.192;2023-03-16T03:52:10;94603.38;;;3.24;74.22
61961;BME280;47923;42.506;24.192;2023-03-16T03:54:36;94504.53;;;2.51;74.16
61961;BME280;47923;42.506;24.192;2023-03-16T03:57:02;94580.19;;;2.92;73.63
61961;BME280;47923;42.506;24.192;2023-03-16T03:59:28;94621.50;;;3.19;73.95
61961;BME280;47923;42.506;24.192;2023-03-16T04:01:53;94624.81;;;3.03;73.87
61961;BME280;47923;42.506;24.192;2023-03-16T04:04:19;94436.22;;;1.80;73.67
61961;BME280;47923;42.506;24.192;2023-03-16T04:06:45;94425.31;;;1.73;73.77
61961;BME280;47923;42.506;24.192;2023-03-16T04:09:11;94439.22;;;1.79;73.47
61961;BME280;47923;42.506;24.192;2023-03-16T04:11:37;94621.91;;;2.96;73.74
61961;BME280;47923;42.506;24.192;2023-03-16T04:14:02;94488.91;;;1.96;73.80
61961;BME280;47923;42.506;24.192;2023-03-16T04:16:28;94633.78;;;2.87;74.32
61961;BME280;47923;42.506;24.192;2023-03-16T04:18:54;94445.41;;;1.50;73.87
61961;BME280;47923;42.506;24.192;2023-03-16T04:21:20;94488.13;;;1.74;74.77
61961;BME280;47923;42.506;24.192;2023-03-16T04:23:47;94499.22;;;1.76;74.36
61961;BME280;47923;42.506;24.192;2023-03-16T04:26:12;94555.69;;;1.90;73.79
61961;BME280;47923;42.506;24.192;2023-03-16T04:28:38;94634.84;;;2.53;74.94
61961;BME280;47923;42.506;24.192;2023-03-16T04:31:06;94639.59;;;2.47;74.71
61961;BME280;47923;42.506;24.192;2023-03-16T04:33:37;94650.00;;;2.40;74.84
61961;BME280;47923;42.506;24.192;2023-03-16T04:36:04;94577.25;;;1.77;75.71
61961;BME280;47923;42.506;24.192;2023-03-16T04:38:31;94620.66;;;1.98;75.73
61961;BME280;47923;42.506;24.192;2023-03-16T04:41:04;94486.25;;;1.03;75.93
61961;BME280;47923;42.506;24.192;2023-03-16T04:43:30;94519.13;;;0.99;76.21
61961;BME280;47923;42.506;24.192;2023-03-16T04:45:59;94668.03;;;1.92;76.91
61961;BME280;47923;42.506;24.192;2023-03-16T04:48:27;94675.59;;;1.82;77.12
61961;BME280;47923;42.506;24.192;2023-03-16T04:50:53;94351.03;;;-0.21;76.89
61961;BME280;47923;42.506;24.192;2023-03-16T04:53:18;94663.09;;;1.74;77.05
61961;BME280;47923;42.506;24.192;2023-03-16T04:55:45;94671.25;;;1.69;77.32
61961;BME280;47923;42.506;24.192;2023-03-16T04:58:10;94667.25;;;1.62;77.74
61961;BME280;47923;42.506;24.192;2023-03-16T05:00:38;94666.38;;;1.41;77.85
61961;BME280;47923;42.506;24.192;2023-03-16T05:03:05;94680.50;;;1.71;77.29
61961;BME280;47923;42.506;24.192;2023-03-16T05:05:30;94690.06;;;1.72;77.22
61961;BME280;47923;42.506;24.192;2023-03-16T05:07:56;94564.97;;;0.96;77.03
61961;BME280;47923;42.506;24.192;2023-03-16T05:10:21;94651.44;;;1.57;76.76
61961;BME280;47923;42.506;24.192;2023-03-16T05:12:47;94291.97;;;-0.74;76.42
61961;BME280;47923;42.506;24.192;2023-03-16T05:15:13;94677.84;;;1.71;76.29
61961;BME280;47923;42.506;24.192;2023-03-16T05:17:39;94694.63;;;2.01;75.82
61961;BME280;47923;42.506;24.192;2023-03-16T05:20:08;94513.00;;;0.98;75.26
61961;BME280;47923;42.506;24.192;2023-03-16T05:22:36;94541.41;;;1.45;74.53
61961;BME280;47923;42.506;24.192;2023-03-16T05:25:02;94692.16;;;2.67;73.40
61961;BME280;47923;42.506;24.192;2023-03-16T05:27:29;94592.88;;;2.62;71.85
61961;BME280;47923;42.506;24.192;2023-03-16T05:29:55;94681.88;;;3.81;67.52
61961;BME280;47923;42.506;24.192;2023-03-16T05:32:20;94699.16;;;4.72;65.04
61961;BME280;47923;42.506;24.192;2023-03-16T05:34:46;94437.41;;;3.47;63.11
61961;BME280;47923;42.506;24.192;2023-03-16T05:37:12;94592.06;;;5.44;60.32
61961;BME280;47923;42.506;24.192;2023-03-16T05:39:37;94696.84;;;7.08;56.03
61961;BME280;47923;42.506;24.192;2023-03-16T05:42:03;94708.22;;;8.54;51.80
61961;BME280;47923;42.506;24.192;2023-03-16T05:44:31;94276.03;;;7.79;44.41
61961;BME280;47923;42.506;24.192;2023-03-16T05:46:57;94589.53;;;11.49;41.18
61961;BME280;47923;42.506;24.192;2023-03-16T05:49:23;94710.75;;;13.68;37.82
61961;BME280;47923;42.506;24.192;2023-03-16T05:51:49;94528.66;;;13.51;34.83
61961;BME280;47923;42.506;24.192;2023-03-16T05:54:14;94663.69;;;14.85;33.86
61961;BME280;47923;42.506;24.192;2023-03-16T05:56:40;94620.84;;;14.59;33.07
61961;BME280;47923;42.506;24.192;2023-03-16T05:59:06;94745.66;;;15.59;32.78
61961;BME280;47923;42.506;24.192;2023-03-16T06:01:31;94662.50;;;16.12;30.79
61961;BME280;47923;42.506;24.192;2023-03-16T06:03:58;94728.59;;;16.67;30.76
61961;BME280;47923;42.506;24.192;2023-03-16T06:06:24;94590.03;;;15.91;30.28
61961;BME280;47923;42.506;24.192;2023-03-16T06:08:50;94739.84;;;17.99;28.40
61961;BME280;47923;42.506;24.192;2023-03-16T06:11:16;94620.63;;;17.52;27.28
61961;BME280;47923;42.506;24.192;2023-03-16T06:13:41;94682.06;;;16.30;29.59
61961;BME280;47923;42.506;24.192;2023-03-16T06:16:07;94609.63;;;12.65;34.62
61961;BME280;47923;42.506;24.192;2023-03-16T06:18:35;94768.78;;;11.35;39.15
61961;BME280;47923;42.506;24.192;2023-03-16T06:21:01;94568.72;;;8.64;42.32
61961;BME280;47923;42.506;24.192;2023-03-16T06:23:28;94771.59;;;9.31;43.84
61961;BME280;47923;42.506;24.192;2023-03-16T06:25:53;94782.53;;;8.85;45.78
61961;BME280;47923;42.506;24.192;2023-03-16T06:28:19;94580.53;;;7.72;45.31
61961;BME280;47923;42.506;24.192;2023-03-16T06:30:45;94753.00;;;9.23;45.25
61961;BME280;47923;42.506;24.192;2023-03-16T06:33:10;94778.81;;;9.24;44.67
61961;BME280;47923;42.506;24.192;2023-03-16T06:35:36;94778.56;;;9.66;44.28
61961;BME280;47923;42.506;24.192;2023-03-16T06:38:02;94676.72;;;8.32;45.18
61961;BME280;47923;42.506;24.192;2023-03-16T06:40:27;94791.03;;;9.78;43.98
61961;BME280;47923;42.506;24.192;2023-03-16T06:42:53;94761.31;;;10.52;41.59
61961;BME280;47923;42.506;24.192;2023-03-16T06:45:18;94738.91;;;11.14;40.64
61961;BME280;47923;42.506;24.192;2023-03-16T06:47:47;94637.13;;;11.78;37.96
61961;BME280;47923;42.506;24.192;2023-03-16T06:50:13;94758.91;;;15.23;32.88
61961;BME280;47923;42.506;24.192;2023-03-16T06:52:39;94725.59;;;14.19;33.81
61961;BME280;47923;42.506;24.192;2023-03-16T06:55:05;94803.19;;;14.20;34.07
61961;BME280;47923;42.506;24.192;2023-03-16T06:57:30;94637.16;;;12.14;35.98
61961;BME280;47923;42.506;24.192;2023-03-16T06:59:56;94798.50;;;12.43;36.75
61961;BME280;47923;42.506;24.192;2023-03-16T07:02:22;94743.34;;;13.61;34.44
61961;BME280;47923;42.506;24.192;2023-03-16T07:04:48;94820.50;;;13.60;34.90
61961;BME280;47923;42.506;24.192;2023-03-16T07:07:14;94758.78;;;11.50;38.27
61961;BME280;47923;42.506;24.192;2023-03-16T07:09:39;94788.97;;;10.90;39.92
61961;BME280;47923;42.506;24.192;2023-03-16T07:12:06;94722.41;;;9.08;42.88
61961;BME280;47923;42.506;24.192;2023-03-16T07:14:32;94827.47;;;9.98;43.16
61961;BME280;47923;42.506;24.192;2023-03-16T07:16:57;94842.94;;;10.01;42.63
61961;BME280;47923;42.506;24.192;2023-03-16T07:19:23;94834.25;;;10.56;42.39
61961;BME280;47923;42.506;24.192;2023-03-16T07:21:48;94839.66;;;11.03;40.63
61961;BME280;47923;42.506;24.192;2023-03-16T07:24:14;94813.16;;;10.72;41.01
61961;BME280;47923;42.506;24.192;2023-03-16T07:26:39;94778.34;;;10.63;40.91
61961;BME280;47923;42.506;24.192;2023-03-16T07:29:05;94852.75;;;10.16;42.38
61961;BME280;47923;42.506;24.192;2023-03-16T07:31:32;94850.84;;;9.53;43.68
61961;BME280;47923;42.506;24.192;2023-03-16T07:33:59;94845.75;;;8.92;45.92
61961;BME280;47923;42.506;24.192;2023-03-16T07:36:25;94856.19;;;8.28;47.17
61961;BME280;47923;42.506;24.192;2023-03-16T07:38:50;94860.31;;;8.22;47.44
61961;BME280;47923;42.506;24.192;2023-03-16T07:41:16;94625.94;;;6.00;49.54
61961;BME280;47923;42.506;24.192;2023-03-16T07:43:42;94649.47;;;6.61;48.59
61961;BME280;47923;42.506;24.192;2023-03-16T07:46:09;94863.16;;;7.71;48.92
61961;BME280;47923;42.506;24.192;2023-03-16T07:48:38;94844.84;;;7.38;50.04
61961;BME280;47923;42.506;24.192;2023-03-16T07:51:04;94825.88;;;7.31;50.14
61961;BME280;47923;42.506;24.192;2023-03-16T07:53:30;94872.53;;;7.23;51.12
61961;BME280;47923;42.506;24.192;2023-03-16T07:55:56;94877.44;;;7.01;51.78
61961;BME280;47923;42.506;24.192;2023-03-16T07:58:21;94620.22;;;5.22;51.91
61961;BME280;47923;42.506;24.192;2023-03-16T08:00:47;94803.19;;;6.42;52.48
61961;BME280;47923;42.506;24.192;2023-03-16T08:03:12;94871.63;;;6.99;52.83
61961;BME280;47923;42.506;24.192;2023-03-16T08:05:38;94622.38;;;5.17;52.27
61961;BME280;47923;42.506;24.192;2023-03-16T08:08:03;94868.53;;;6.34;52.99
61961;BME280;47923;42.506;24.192;2023-03-16T08:10:29;94880.56;;;6.56;53.31
61961;BME280;47923;42.506;24.192;2023-03-16T08:12:54;94867.72;;;6.18;54.15
61961;BME280;47923;42.506;24.192;2023-03-16T08:15:20;94899.53;;;6.47;54.35
61961;BME280;47923;42.506;24.192;2023-03-16T08:17:46;94728.47;;;5.21;53.89
61961;BME280;47923;42.506;24.192;2023-03-16T08:20:12;94824.44;;;6.03;53.94
61961;BME280;47923;42.506;24.192;2023-03-16T08:22:39;94888.63;;;6.72;52.86
61961;BME280;47923;42.506;24.192;2023-03-16T08:25:06;94888.38;;;6.77;53.09
61961;BME280;47923;42.506;24.192;2023-03-16T08:27:35;94729.47;;;5.45;53.74
61961;BME280;47923;42.506;24.192;2023-03-16T08:30:04;94894.94;;;6.48;53.62
61961;BME280;47923;42.506;24.192;2023-03-16T08:32:31;94732.03;;;5.41;53.52
61961;BME280;47923;42.506;24.192;2023-03-16T08:34:56;94837.78;;;6.16;53.54
61961;BME280;47923;42.506;24.192;2023-03-16T08:37:23;94820.72;;;6.24;52.55
61961;BME280;47923;42.506;24.192;2023-03-16T08:39:48;94773.03;;;6.01;52.88
61961;BME280;47923;42.506;24.192;2023-03-16T08:42:16;94904.03;;;7.06;52.01
61961;BME280;47923;42.506;24.192;2023-03-16T08:44:42;94897.06;;;7.21;51.38
61961;BME280;47923;42.506;24.192;2023-03-16T08:47:08;94634.75;;;5.37;51.44
61961;BME280;47923;42.506;24.192;2023-03-16T08:49:35;94727.56;;;6.21;50.74
61961;BME280;47923;42.506;24.192;2023-03-16T08:52:01;94900.66;;;7.44;50.30
61961;BME280;47923;42.506;24.192;2023-03-16T08:54:26;94865.97;;;7.04;50.34
61961;BME280;47923;42.506;24.192;2023-03-16T08:56:52;94819.53;;;6.69;50.86
61961;BME280;47923;42.506;24.192;2023-03-16T08:59:18;94793.97;;;6.59;50.36
61961;BME280;47923;42.506;24.192;2023-03-16T09:01:43;94881.78;;;7.25;50.25
61961;BME280;47923;42.506;24.192;2023-03-16T09:04:09;94845.19;;;7.01;50.10
61961;BME280;47923;42.506;24.192;2023-03-16T09:06:35;94907.94;;;7.44;49.97
61961;BME280;47923;42.506;24.192;2023-03-16T09:09:01;94801.50;;;6.85;49.42
61961;BME280;47923;42.506;24.192;2023-03-16T09:11:26;94755.41;;;6.48;49.49
61961;BME280;47923;42.506;24.192;2023-03-16T09:13:54;94914.56;;;7.85;49.21
61961;BME280;47923;42.506;24.192;2023-03-16T09:16:20;94826.28;;;7.13;49.21
61961;BME280;47923;42.506;24.192;2023-03-16T09:18:50;94795.91;;;6.93;48.83
61961;BME280;47923;42.506;24.192;2023-03-16T09:21:15;94855.94;;;7.36;49.21
61961;BME280;47923;42.506;24.192;2023-03-16T09:23:41;94919.81;;;7.97;48.42
61961;BME280;47923;42.506;24.192;2023-03-16T09:26:08;94909.28;;;8.50;47.41
61961;BME280;47923;42.506;24.192;2023-03-16T09:28:35;94936.56;;;8.49;46.16
61961;BME280;47923;42.506;24.192;2023-03-16T09:31:03;94847.25;;;8.01;46.82
61961;BME280;47923;42.506;24.192;2023-03-16T09:33:30;94891.75;;;8.37;46.94
61961;BME280;47923;42.506;24.192;2023-03-16T09:36:00;94801.94;;;8.26;46.15
61961;BME280;47923;42.506;24.192;2023-03-16T09:38:26;94911.63;;;9.21;45.32
61961;BME280;47923;42.506;24.192;2023-03-16T09:41:01;94922.66;;;9.65;44.26
61961;BME280;47923;42.506;24.192;2023-03-16T09:48:32;94899.53;;;11.60;39.43
61961;BME280;47923;42.506;24.192;2023-03-16T09:51:00;94926.94;;;11.55;39.11
61961;BME280;47923;42.506;24.192;2023-03-16T09:53:33;94923.53;;;11.14;40.21
61961;BME280;47923;42.506;24.192;2023-03-16T09:56:03;94787.75;;;9.95;40.67
61961;BME280;47923;42.506;24.192;2023-03-16T09:58:29;94898.63;;;10.91;40.90
61961;BME280;47923;42.506;24.192;2023-03-16T10:06:25;94865.16;;;11.72;38.85
61961;BME280;47923;42.506;24.192;2023-03-16T10:08:58;94920.50;;;12.86;37.58
61961;BME280;47923;42.506;24.192;2023-03-16T10:11:41;94916.66;;;13.12;36.83
61961;BME280;47923;42.506;24.192;2023-03-16T10:16:57;94905.41;;;12.89;37.02
61961;BME280;47923;42.506;24.192;2023-03-16T10:21:53;94901.59;;;15.67;33.11
61961;BME280;47923;42.506;24.192;2023-03-16T10:24:35;94779.56;;;14.69;32.42
61961;BME280;47923;42.506;24.192;2023-03-16T10:27:08;94786.13;;;14.78;32.41
61961;BME280;47923;42.506;24.192;2023-03-16T10:29:39;94871.97;;;16.07;31.01
61961;BME280;47923;42.506;24.192;2023-03-16T10:32:14;94922.44;;;16.18;30.89
61961;BME280;47923;42.506;24.192;2023-03-16T10:34:44;94849.28;;;15.00;32.07
61961;BME280;47923;42.506;24.192;2023-03-16T10:37:12;94944.22;;;15.36;32.72
61961;BME280;47923;42.506;24.192;2023-03-16T10:39:38;94951.31;;;14.53;33.39
61961;BME280;47923;42.506;24.192;2023-03-16T10:42:13;94942.22;;;13.04;35.86
61961;BME280;47923;42.506;24.192;2023-03-16T10:44:40;94953.81;;;12.90;36.31
61961;BME280;47923;42.506;24.192;2023-03-16T10:47:06;94812.75;;;12.05;36.81
61961;BME280;47923;42.506;24.192;2023-03-16T10:49:41;94951.78;;;12.52;37.20
61961;BME280;47923;42.506;24.192;2023-03-16T10:52:33;94947.06;;;11.65;39.17
61961;BME280;47923;42.506;24.192;2023-03-16T10:55:05;94888.59;;;11.43;39.65
61961;BME280;47923;42.506;24.192;2023-03-16T10:57:34;94923.84;;;11.57;38.77
61961;BME280;47923;42.506;24.192;2023-03-16T11:02:36;94729.97;;;10.00;40.08
61961;BME280;47923;42.506;24.192;2023-03-16T11:10:37;94942.19;;;10.86;41.20
61961;BME280;47923;42.506;24.192;2023-03-16T11:13:10;94923.38;;;10.96;40.58
61961;BME280;47923;42.506;24.192;2023-03-16T11:18:40;94934.66;;;11.53;39.87
61961;BME280;47923;42.506;24.192;2023-03-16T11:24:39;94762.28;;;10.30;40.11
61961;BME280;47923;42.506;24.192;2023-03-16T11:32:52;94791.59;;;9.60;40.81
61961;BME280;47923;42.506;24.192;2023-03-16T11:35:38;94960.94;;;10.34;41.76
61961;BME280;47923;42.506;24.192;2023-03-16T11:38:16;94884.41;;;9.86;42.01
61961;BME280;47923;42.506;24.192;2023-03-16T11:46:14;94946.53;;;9.63;43.97
61961;BME280;47923;42.506;24.192;2023-03-16T12:03:07;94950.41;;;9.95;43.39
61961;BME280;47923;42.506;24.192;2023-03-16T12:10:45;94937.91;;;9.27;44.80
61961;BME280;47923;42.506;24.192;2023-03-16T12:19:13;94776.34;;;7.70;46.33
61961;BME280;47923;42.506;24.192;2023-03-16T12:21:44;94954.00;;;8.55;47.13
61961;BME280;47923;42.506;24.192;2023-03-16T12:24:19;94982.88;;;8.77;47.11
61961;BME280;47923;42.506;24.192;2023-03-16T12:26:47;94970.22;;;8.58;47.09
61961;BME280;47923;42.506;24.192;2023-03-16T12:32:00;94908.91;;;8.10;47.17
61961;BME280;47923;42.506;24.192;2023-03-16T12:45:35;94986.34;;;8.20;48.54
61961;BME280;47923;42.506;24.192;2023-03-16T12:50:58;94986.41;;;7.50;49.64
61961;BME280;47923;42.506;24.192;2023-03-16T12:53:52;94984.84;;;7.84;49.64
61961;BME280;47923;42.506;24.192;2023-03-16T12:56:26;94995.16;;;7.82;49.85
61961;BME280;47923;42.506;24.192;2023-03-16T12:58:56;94946.38;;;7.29;50.23
61961;BME280;47923;42.506;24.192;2023-03-16T13:01:29;94949.06;;;6.97;50.77
61961;BME280;47923;42.506;24.192;2023-03-16T13:04:28;94935.97;;;7.11;50.81
61961;BME280;47923;42.506;24.192;2023-03-16T13:07:03;94913.72;;;6.79;51.37
61961;BME280;47923;42.506;24.192;2023-03-16T13:09:34;94946.38;;;7.29;50.90
61961;BME280;47923;42.506;24.192;2023-03-16T13:12:01;94941.34;;;7.11;50.59
61961;BME280;47923;42.506;24.192;2023-03-16T13:14:43;95021.84;;;7.24;51.25
61961;BME280;47923;42.506;24.192;2023-03-16T13:19:42;94905.69;;;6.04;53.21
61961;BME280;47923;42.506;24.192;2023-03-16T13:25:15;94952.19;;;5.96;54.34
61961;BME280;47923;42.506;24.192;2023-03-16T13:27:47;95009.41;;;6.16;55.48
61961;BME280;47923;42.506;24.192;2023-03-16T13:30:26;95033.16;;;6.42;54.73
61961;BME280;47923;42.506;24.192;2023-03-16T13:32:54;94997.19;;;6.02;55.04
61961;BME280;47923;42.506;24.192;2023-03-16T13:35:25;94913.63;;;5.48;54.98
61961;BME280;47923;42.506;24.192;2023-03-16T13:37:52;95045.97;;;6.20;55.44
61961;BME280;47923;42.506;24.192;2023-03-16T13:40:21;94853.69;;;4.88;56.34
61961;BME280;47923;42.506;24.192;2023-03-16T13:42:48;95031.25;;;6.02;56.69
61961;BME280;47923;42.506;24.192;2023-03-16T13:45:20;94847.25;;;4.64;56.82
61961;BME280;47923;42.506;24.192;2023-03-16T13:47:48;95042.31;;;5.88;56.71
61961;BME280;47923;42.506;24.192;2023-03-16T13:50:15;95017.44;;;5.75;56.51
61961;BME280;47923;42.506;24.192;2023-03-16T13:52:41;95046.44;;;6.10;55.99
61961;BME280;47923;42.506;24.192;2023-03-16T13:55:15;95051.00;;;6.09;56.42
61961;BME280;47923;42.506;24.192;2023-03-16T13:57:42;95052.84;;;5.93;57.81
61961;BME280;47923;42.506;24.192;2023-03-16T14:00:27;95037.63;;;5.85;57.84
61961;BME280;47923;42.506;24.192;2023-03-16T14:02:57;95047.34;;;5.65;58.26
61961;BME280;47923;42.506;24.192;2023-03-16T14:05:26;95044.56;;;5.62;58.91
61961;BME280;47923;42.506;24.192;2023-03-16T14:07:53;95048.47;;;5.64;58.87
61961;BME280;47923;42.506;24.192;2023-03-16T14:10:20;95051.72;;;5.33;59.24
61961;BME280;47923;42.506;24.192;2023-03-16T14:12:53;94997.34;;;4.96;59.96
61961;BME280;47923;42.506;24.192;2023-03-16T14:15:20;94989.31;;;4.96;59.57
61961;BME280;47923;42.506;24.192;2023-03-16T14:17:46;94850.16;;;3.90;59.51
61961;BME280;47923;42.506;24.192;2023-03-16T14:20:24;95065.31;;;5.16;60.26
61961;BME280;47923;42.506;24.192;2023-03-16T14:22:51;94985.22;;;4.53;60.62
61961;BME280;47923;42.506;24.192;2023-03-16T14:25:23;95039.16;;;4.88;60.91
61961;BME280;47923;42.506;24.192;2023-03-16T14:28:05;94907.06;;;4.02;60.57
61961;BME280;47923;42.506;24.192;2023-03-16T14:30:31;94765.13;;;3.04;60.74
61961;BME280;47923;42.506;24.192;2023-03-16T14:33:02;95081.94;;;5.09;61.32
61961;BME280;47923;42.506;24.192;2023-03-16T14:35:31;95073.31;;;5.04;61.65
61961;BME280;47923;42.506;24.192;2023-03-16T14:38:38;94811.41;;;3.29;61.63